KDAY

James M Cox Dayton International Airport

Dayton, Ohio, USA
METAR KDAY 242003Z 08009KT 10SM OVC010 09/08 A3000 RMK AO2 T00940083
Observed Flight Rules
Feb-24 @ 20:03 UTC (11 minutes ago) Marginal Visual Flight Rules
Wind Visibility Clouds
80° at 9 knots 10 miles
  • Overcast at 1,000' AGL
Temperatures Readings
Current 9°C / 48°F
Dewpoint 8°C / 46°F
Humidity 94%
Altimeter 30" Hg
Pressure 1016 hPa
Elevation 305
METAR KDAY 242003Z 08009KT 10SM OVC010 09/08 A3000 RMK AO2 T00940083
Observed Flight Rules
Feb-24 @ 20:03 UTC
(11 minutes ago)
MVFR
Wind Visibility
80° at 9 knots 10 miles
Clouds
  • Overcast at 1,000' AGL
Temperature Dewpoint
9°C / 48°F 8°C / 46°F
Humidity Altimeter Pressure
94% 30" Hg 1016 hPa